createdAt,value
2018-06-24T00:00:49.287Z,1009.67
2018-06-24T00:01:49.264Z,1009.69
2018-06-24T00:02:49.294Z,1009.64
2018-06-24T00:03:49.287Z,1009.62
2018-06-24T00:04:49.231Z,1009.65
2018-06-24T00:05:49.278Z,1009.58
2018-06-24T00:06:49.198Z,1009.56
2018-06-24T00:07:49.188Z,1009.52
2018-06-24T00:08:49.215Z,1009.50
2018-06-24T00:09:49.174Z,1009.50
2018-06-24T00:10:49.171Z,1009.50
2018-06-24T00:11:49.148Z,1009.48
2018-06-24T00:12:49.163Z,1009.47
2018-06-24T00:13:49.182Z,1009.45
2018-06-24T00:14:49.119Z,1009.45
2018-06-24T00:15:49.102Z,1009.46
2018-06-24T00:16:49.090Z,1009.44
2018-06-24T00:17:49.086Z,1009.40
2018-06-24T00:18:49.064Z,1009.41
2018-06-24T00:19:49.060Z,1009.39
2018-06-24T00:20:49.028Z,1009.39
2018-06-24T00:21:49.029Z,1009.43
2018-06-24T00:22:49.008Z,1009.40
2018-06-24T00:23:49.009Z,1009.40
2018-06-24T00:24:49.022Z,1009.43
2018-06-24T00:25:48.983Z,1009.43
2018-06-24T00:26:48.970Z,1009.39
2018-06-24T00:27:48.956Z,1009.40
2018-06-24T00:28:48.941Z,1009.42
2018-06-24T00:29:48.934Z,1009.41
2018-06-24T00:30:48.950Z,1009.39
2018-06-24T00:31:48.902Z,1009.38
2018-06-24T00:32:48.879Z,1009.40
2018-06-24T00:33:48.885Z,1009.35
2018-06-24T00:34:48.904Z,1009.34
2018-06-24T00:35:49.035Z,1009.32
2018-06-24T00:36:48.914Z,1009.30
2018-06-24T00:37:48.842Z,1009.24
2018-06-24T00:38:48.818Z,1009.24
2018-06-24T00:39:48.813Z,1009.20
2018-06-24T00:40:48.786Z,1009.19
2018-06-24T00:41:48.809Z,1009.20
2018-06-24T00:42:48.771Z,1009.18
2018-06-24T00:43:48.757Z,1009.19
2018-06-24T00:44:48.744Z,1009.17
2018-06-24T00:45:48.750Z,1009.17
2018-06-24T00:46:48.710Z,1009.20
2018-06-24T00:47:48.716Z,1009.17
2018-06-24T00:48:48.687Z,1009.18
2018-06-24T00:49:48.678Z,1009.17
2018-06-24T00:50:48.685Z,1009.16
2018-06-24T00:51:48.676Z,1009.12
2018-06-24T00:52:48.631Z,1009.09
2018-06-24T00:53:48.760Z,1009.06
2018-06-24T00:54:48.616Z,1009.09
2018-06-24T00:55:48.610Z,1009.05
2018-06-24T00:56:48.589Z,1009.06
2018-06-24T00:57:48.593Z,1009.09
2018-06-24T00:58:48.564Z,1009.12
2018-06-24T00:59:48.559Z,1009.10
2018-06-24T01:00:48.531Z,1009.09
2018-06-24T01:01:48.525Z,1009.10
2018-06-24T01:02:48.553Z,1009.07
2018-06-24T01:03:48.505Z,1009.07
2018-06-24T01:04:48.489Z,1009.03
2018-06-24T01:05:48.477Z,1009.11
2018-06-24T01:06:48.462Z,1009.06
2018-06-24T01:07:48.455Z,1009.11
2018-06-24T01:08:48.438Z,1009.04
2018-06-24T01:09:48.432Z,1009.04
2018-06-24T01:10:48.414Z,1009.05
2018-06-24T01:11:48.430Z,1009.01
2018-06-24T01:12:48.385Z,1009.01
2018-06-24T01:13:48.410Z,1009.06
2018-06-24T01:14:48.365Z,1009.00
2018-06-24T01:15:48.346Z,1009.06
2018-06-24T01:16:48.342Z,1009.08
2018-06-24T01:17:48.323Z,1009.08
2018-06-24T01:18:48.395Z,1009.10
2018-06-24T01:19:48.306Z,1009.07
2018-06-24T01:20:48.280Z,1009.04
2018-06-24T01:21:48.263Z,1009.01
2018-06-24T01:22:48.258Z,1009.01
2018-06-24T01:23:48.237Z,1009.01
2018-06-24T01:24:48.231Z,1008.99
2018-06-24T01:25:48.215Z,1009.01
2018-06-24T01:26:48.206Z,1008.99
2018-06-24T01:27:48.187Z,1008.99
2018-06-24T01:28:48.192Z,1008.96
2018-06-24T01:29:48.234Z,1008.99
2018-06-24T01:30:48.158Z,1008.97
2018-06-24T01:31:48.146Z,1008.97
2018-06-24T01:32:48.140Z,1008.97
2018-06-24T01:33:48.119Z,1008.97
2018-06-24T01:34:48.104Z,1008.97
2018-06-24T01:35:48.119Z,1008.99
2018-06-24T01:36:48.070Z,1008.98
2018-06-24T01:37:48.054Z,1009.01
2018-06-24T01:38:48.042Z,1009.01
2018-06-24T01:39:48.044Z,1009.00
2018-06-24T01:40:48.056Z,1009.01
2018-06-24T01:41:48.012Z,1008.99
2018-06-24T01:42:48.006Z,1008.97
2018-06-24T01:43:47.998Z,1008.97
2018-06-24T01:44:48.010Z,1008.95
2018-06-24T01:45:47.950Z,1008.97
2018-06-24T01:46:47.960Z,1008.98
2018-06-24T01:47:47.939Z,1008.97
2018-06-24T01:48:47.920Z,1008.94
2018-06-24T01:49:47.906Z,1008.94
2018-06-24T01:50:47.896Z,1008.96
2018-06-24T01:51:47.951Z,1008.96
2018-06-24T01:52:47.880Z,1008.95
2018-06-24T01:53:47.861Z,1008.95
2018-06-24T01:54:47.847Z,1008.93
2018-06-24T01:55:47.832Z,1008.95
2018-06-24T01:56:47.817Z,1008.93
2018-06-24T01:57:47.839Z,1008.94
2018-06-24T01:58:47.793Z,1008.91
2018-06-24T01:59:47.771Z,1008.94
2018-06-24T02:00:47.772Z,1008.93
2018-06-24T02:01:47.750Z,1008.91
2018-06-24T02:02:47.763Z,1008.89
2018-06-24T02:03:47.730Z,1008.87
2018-06-24T02:04:47.718Z,1008.88
2018-06-24T02:05:47.700Z,1008.88
2018-06-24T02:06:47.846Z,1008.89
2018-06-24T02:07:47.680Z,1008.88
2018-06-24T02:08:47.663Z,1008.84
2018-06-24T02:09:47.655Z,1008.87
2018-06-24T02:10:47.638Z,1008.88
2018-06-24T02:11:47.620Z,1008.84
2018-06-24T02:12:47.644Z,1008.84
2018-06-24T02:13:47.607Z,1008.82
2018-06-24T02:14:47.591Z,1008.82
2018-06-24T02:15:47.578Z,1008.86
2018-06-24T02:16:47.553Z,1008.86
2018-06-24T02:17:47.580Z,1008.88
2018-06-24T02:18:47.569Z,1008.85
2018-06-24T02:19:47.532Z,1008.82
2018-06-24T02:20:47.514Z,1008.76
2018-06-24T02:21:47.496Z,1008.76
2018-06-24T02:22:47.492Z,1008.71
2018-06-24T02:23:47.483Z,1008.72
2018-06-24T02:24:47.462Z,1008.73
2018-06-24T02:25:47.480Z,1008.75
2018-06-24T02:26:47.435Z,1008.75
2018-06-24T02:27:47.428Z,1008.73
2018-06-24T02:28:47.411Z,1008.68
2018-06-24T02:29:47.407Z,1008.67
2018-06-24T02:30:47.569Z,1008.67
2018-06-24T02:31:47.366Z,1008.66
2018-06-24T02:32:47.360Z,1008.68
2018-06-24T02:33:47.342Z,1008.67
2018-06-24T02:34:47.339Z,1008.67
2018-06-24T02:35:47.451Z,1008.66
2018-06-24T02:36:47.331Z,1008.67
2018-06-24T02:37:47.304Z,1008.61
2018-06-24T02:38:47.288Z,1008.65
2018-06-24T02:39:47.272Z,1008.66
2018-06-24T02:40:47.254Z,1008.61
2018-06-24T02:41:47.255Z,1008.66
2018-06-24T02:42:47.222Z,1008.65
2018-06-24T02:43:47.221Z,1008.70
2018-06-24T02:44:47.203Z,1008.67
2018-06-24T02:45:47.184Z,1008.64
2018-06-24T02:46:47.236Z,1008.68
2018-06-24T02:47:47.164Z,1008.68
2018-06-24T02:48:47.159Z,1008.64
2018-06-24T02:49:47.148Z,1008.63
2018-06-24T02:50:47.126Z,1008.65
2018-06-24T02:51:47.114Z,1008.61
2018-06-24T02:52:47.132Z,1008.57
2018-06-24T02:53:47.293Z,1008.54
2018-06-24T02:54:47.079Z,1008.56
2018-06-24T02:55:47.070Z,1008.55
2018-06-24T02:56:47.052Z,1008.56
2018-06-24T02:57:47.101Z,1008.58
2018-06-24T02:58:47.025Z,1008.58
2018-06-24T02:59:47.017Z,1008.57
2018-06-24T03:00:47.007Z,1008.51
2018-06-24T03:01:46.979Z,1008.56
2018-06-24T03:02:46.975Z,1008.51
2018-06-24T03:03:46.976Z,1008.48
2018-06-24T03:04:46.959Z,1008.57
2018-06-24T03:05:46.925Z,1008.58
2018-06-24T03:06:46.919Z,1008.57
2018-06-24T03:07:46.909Z,1008.61
2018-06-24T03:08:46.924Z,1008.58
2018-06-24T03:09:47.035Z,1008.59
2018-06-24T03:10:46.862Z,1008.65
2018-06-24T03:11:46.862Z,1008.63
2018-06-24T03:12:46.846Z,1008.67
2018-06-24T03:13:46.837Z,1008.68
2018-06-24T03:14:46.811Z,1008.67
2018-06-24T03:15:46.819Z,1008.68
2018-06-24T03:16:46.855Z,1008.66
2018-06-24T03:17:46.779Z,1008.68
2018-06-24T03:18:46.787Z,1008.65
2018-06-24T03:19:46.764Z,1008.63
2018-06-24T03:20:46.739Z,1008.63
2018-06-24T03:21:46.731Z,1008.57
2018-06-24T03:22:46.715Z,1008.57
2018-06-24T03:23:46.771Z,1008.57
2018-06-24T03:24:46.682Z,1008.58
2018-06-24T03:25:46.687Z,1008.57
2018-06-24T03:26:46.673Z,1008.53
2018-06-24T03:27:46.645Z,1008.59
2018-06-24T03:28:46.640Z,1008.57
2018-06-24T03:29:46.661Z,1008.57
2018-06-24T03:30:46.614Z,1008.57
2018-06-24T03:31:46.604Z,1008.60
2018-06-24T03:32:46.625Z,1008.60
2018-06-24T03:33:46.574Z,1008.60
2018-06-24T03:34:46.595Z,1008.57
2018-06-24T03:35:46.547Z,1008.57
2018-06-24T03:36:46.541Z,1008.57
2018-06-24T03:37:46.536Z,1008.55
2018-06-24T03:38:46.501Z,1008.57
2018-06-24T03:39:46.520Z,1008.59
2018-06-24T03:40:46.492Z,1008.58
2018-06-24T03:41:46.472Z,1008.58
2018-06-24T03:42:46.456Z,1008.56
2018-06-24T03:43:46.433Z,1008.60
2018-06-24T03:44:46.461Z,1008.59
2018-06-24T03:45:46.423Z,1008.59
2018-06-24T03:46:46.398Z,1008.60
2018-06-24T03:47:46.393Z,1008.60
2018-06-24T03:48:46.381Z,1008.56
2018-06-24T03:49:46.405Z,1008.60
2018-06-24T03:50:46.357Z,1008.59
2018-06-24T03:51:46.344Z,1008.62
2018-06-24T03:52:46.331Z,1008.61
2018-06-24T03:53:46.311Z,1008.59
2018-06-24T03:54:46.332Z,1008.57
2018-06-24T03:55:46.291Z,1008.59
2018-06-24T03:56:46.274Z,1008.58
2018-06-24T03:57:46.275Z,1008.56
2018-06-24T03:58:46.247Z,1008.58
2018-06-24T03:59:46.273Z,1008.56
2018-06-24T04:00:46.235Z,1008.58
2018-06-24T04:01:46.222Z,1008.57
2018-06-24T04:02:46.208Z,1008.57
2018-06-24T04:03:46.187Z,1008.62
2018-06-24T04:04:46.211Z,1008.66
2018-06-24T04:05:46.173Z,1008.63
2018-06-24T04:06:46.185Z,1008.65
2018-06-24T04:07:46.142Z,1008.63
2018-06-24T04:08:46.125Z,1008.59
2018-06-24T04:09:46.256Z,1008.58
2018-06-24T04:10:46.096Z,1008.59
2018-06-24T04:11:46.082Z,1008.55
2018-06-24T04:12:46.075Z,1008.60
2018-06-24T04:13:46.057Z,1008.61
2018-06-24T04:14:46.050Z,1008.59
2018-06-24T04:15:46.050Z,1008.57
2018-06-24T04:16:46.019Z,1008.57
2018-06-24T04:17:46.014Z,1008.52
2018-06-24T04:18:45.998Z,1008.56
2018-06-24T04:19:46.020Z,1008.57
2018-06-24T04:20:45.966Z,1008.57
2018-06-24T04:21:45.963Z,1008.60
2018-06-24T04:22:45.946Z,1008.62
2018-06-24T04:23:45.932Z,1008.62
2018-06-24T04:24:46.068Z,1008.62
2018-06-24T04:25:45.978Z,1008.63
2018-06-24T04:26:45.904Z,1008.65
2018-06-24T04:27:45.887Z,1008.66
2018-06-24T04:28:45.874Z,1008.61
2018-06-24T04:29:45.855Z,1008.61
2018-06-24T04:30:45.858Z,1008.62
2018-06-24T04:31:45.833Z,1008.68
2018-06-24T04:32:45.827Z,1008.67
2018-06-24T04:33:45.809Z,1008.69
2018-06-24T04:34:45.918Z,1008.71
2018-06-24T04:35:45.792Z,1008.69
2018-06-24T04:36:45.778Z,1008.70
2018-06-24T04:37:45.771Z,1008.71
2018-06-24T04:38:45.758Z,1008.71
2018-06-24T04:39:45.735Z,1008.71
2018-06-24T04:40:45.726Z,1008.69
2018-06-24T04:41:45.739Z,1008.67
2018-06-24T04:42:45.712Z,1008.74
2018-06-24T04:43:45.688Z,1008.69
2018-06-24T04:44:45.670Z,1008.72
2018-06-24T04:45:45.657Z,1008.69
2018-06-24T04:46:45.668Z,1008.68
2018-06-24T04:47:45.636Z,1008.69
2018-06-24T04:48:45.614Z,1008.72
2018-06-24T04:49:45.606Z,1008.73
2018-06-24T04:50:45.591Z,1008.75
2018-06-24T04:51:45.714Z,1008.72
2018-06-24T04:52:45.576Z,1008.70
2018-06-24T04:53:45.549Z,1008.73
2018-06-24T04:54:45.548Z,1008.72
2018-06-24T04:55:45.536Z,1008.67
2018-06-24T04:56:45.574Z,1008.73
2018-06-24T04:57:45.499Z,1008.71
2018-06-24T04:58:45.500Z,1008.68
2018-06-24T04:59:45.487Z,1008.69
2018-06-24T05:00:45.479Z,1008.73
2018-06-24T05:01:45.461Z,1008.76
2018-06-24T05:02:45.458Z,1008.75
2018-06-24T05:03:45.432Z,1008.78
2018-06-24T05:04:45.424Z,1008.72
2018-06-24T05:05:45.397Z,1008.71
2018-06-24T05:06:45.390Z,1008.67
2018-06-24T05:07:45.420Z,1008.74
2018-06-24T05:08:45.415Z,1008.75
2018-06-24T05:09:45.359Z,1008.72
2018-06-24T05:10:45.353Z,1008.71
2018-06-24T05:11:45.336Z,1008.71
2018-06-24T05:12:45.353Z,1008.70
2018-06-24T05:13:45.306Z,1008.72
2018-06-24T05:14:45.299Z,1008.71
2018-06-24T05:15:45.293Z,1008.75
2018-06-24T05:16:45.267Z,1008.81
2018-06-24T05:17:45.257Z,1008.80
2018-06-24T05:18:45.601Z,1008.81
2018-06-24T05:19:45.233Z,1008.80
2018-06-24T05:20:45.211Z,1008.80
2018-06-24T05:21:45.207Z,1008.80
2018-06-24T05:22:45.199Z,1008.80
2018-06-24T05:23:45.179Z,1008.81
2018-06-24T05:24:45.184Z,1008.82
2018-06-24T05:25:45.160Z,1008.83
2018-06-24T05:26:45.153Z,1008.84
2018-06-24T05:27:45.162Z,1008.84
2018-06-24T05:28:45.176Z,1008.85
2018-06-24T05:29:45.114Z,1008.83
2018-06-24T05:30:45.085Z,1008.77
2018-06-24T05:31:45.080Z,1008.78
2018-06-24T05:32:45.082Z,1008.77
2018-06-24T05:33:45.061Z,1008.81
2018-06-24T05:34:45.058Z,1008.84
2018-06-24T05:35:45.035Z,1008.85
2018-06-24T05:36:45.020Z,1008.79
2018-06-24T05:37:45.077Z,1008.83
2018-06-24T05:38:45.008Z,1008.84
2018-06-24T05:39:44.994Z,1008.87
2018-06-24T05:40:44.973Z,1008.82
2018-06-24T05:41:44.967Z,1008.85
2018-06-24T05:42:44.962Z,1008.84
2018-06-24T05:43:44.961Z,1008.82
2018-06-24T05:44:44.924Z,1008.84
2018-06-24T05:45:44.914Z,1008.82
2018-06-24T05:46:44.955Z,1008.81
2018-06-24T05:47:44.901Z,1008.76
2018-06-24T05:48:44.929Z,1008.75
2018-06-24T05:49:44.865Z,1008.74
2018-06-24T05:50:44.857Z,1008.76
2018-06-24T05:51:44.842Z,1008.76
2018-06-24T05:52:44.832Z,1008.79
2018-06-24T05:53:44.851Z,1008.76
2018-06-24T05:54:44.817Z,1008.74
2018-06-24T05:55:44.797Z,1008.75
2018-06-24T05:56:44.787Z,1008.75
2018-06-24T05:57:44.785Z,1008.81
2018-06-24T05:58:44.897Z,1008.77
2018-06-24T05:59:44.747Z,1008.78
2018-06-24T06:00:44.746Z,1008.78
2018-06-24T06:01:44.716Z,1008.77
2018-06-24T06:02:44.711Z,1008.79
2018-06-24T06:03:44.694Z,1008.85
2018-06-24T06:04:44.692Z,1008.84
2018-06-24T06:05:44.669Z,1008.83
2018-06-24T06:06:44.663Z,1008.84
2018-06-24T06:07:44.656Z,1008.80
2018-06-24T06:08:44.645Z,1008.81
2018-06-24T06:09:44.632Z,1008.85
2018-06-24T06:10:44.748Z,1008.81
2018-06-24T06:11:44.663Z,1008.87
2018-06-24T06:12:44.581Z,1008.84
2018-06-24T06:13:44.579Z,1008.84
2018-06-24T06:14:44.574Z,1008.82
2018-06-24T06:15:44.559Z,1008.85
2018-06-24T06:16:44.851Z,1008.83
2018-06-24T06:17:44.533Z,1008.84
2018-06-24T06:18:44.525Z,1008.82
2018-06-24T06:19:44.514Z,1008.85
2018-06-24T06:20:44.499Z,1008.84
2018-06-24T06:21:44.522Z,1008.86
2018-06-24T06:22:44.465Z,1008.89
2018-06-24T06:23:44.459Z,1008.89
2018-06-24T06:24:44.459Z,1008.87
2018-06-24T06:25:44.462Z,1008.89
2018-06-24T06:26:44.427Z,1008.86
2018-06-24T06:27:44.412Z,1008.87
2018-06-24T06:28:44.432Z,1008.84
2018-06-24T06:29:44.395Z,1008.83
2018-06-24T06:30:44.395Z,1008.84
2018-06-24T06:31:44.363Z,1008.87
2018-06-24T06:32:44.359Z,1008.86
2018-06-24T06:33:44.341Z,1008.90
2018-06-24T06:34:44.333Z,1008.95
2018-06-24T06:35:44.343Z,1008.94
2018-06-24T06:36:44.334Z,1008.93
2018-06-24T06:37:44.283Z,1008.95
2018-06-24T06:38:44.281Z,1008.94
2018-06-24T06:39:44.266Z,1008.93
2018-06-24T06:40:44.393Z,1008.91
2018-06-24T06:41:44.238Z,1008.93
2018-06-24T06:42:44.231Z,1008.90
2018-06-24T06:43:44.219Z,1008.90
2018-06-24T06:44:44.206Z,1008.92
2018-06-24T06:45:44.313Z,1008.91
2018-06-24T06:46:44.214Z,1008.94
2018-06-24T06:47:44.179Z,1009.01
2018-06-24T06:48:44.149Z,1009.01
2018-06-24T06:49:44.147Z,1009.00
2018-06-24T06:50:44.140Z,1008.99
2018-06-24T06:51:44.273Z,1009.00
2018-06-24T06:52:44.104Z,1009.00
2018-06-24T06:53:44.092Z,1008.96
2018-06-24T06:54:44.091Z,1009.00
2018-06-24T06:55:44.062Z,1009.01
2018-06-24T06:56:44.062Z,1009.02
2018-06-24T06:57:44.072Z,1009.02
2018-06-24T06:58:44.032Z,1009.01
2018-06-24T06:59:44.014Z,1009.03
2018-06-24T07:00:44.015Z,1009.04
2018-06-24T07:01:43.997Z,1009.05
2018-06-24T07:02:44.070Z,1008.99
2018-06-24T07:03:43.974Z,1009.00
2018-06-24T07:04:43.963Z,1009.03
2018-06-24T07:05:43.965Z,1009.03
2018-06-24T07:06:43.937Z,1009.04
2018-06-24T07:07:43.930Z,1009.06
2018-06-24T07:08:43.948Z,1009.05
2018-06-24T07:09:43.909Z,1009.07
2018-06-24T07:10:43.884Z,1009.08
2018-06-24T07:11:43.882Z,1009.10
2018-06-24T07:12:43.861Z,1009.13
2018-06-24T07:13:43.890Z,1009.05
2018-06-24T07:14:43.842Z,1009.05
2018-06-24T07:15:43.825Z,1009.02
2018-06-24T07:16:43.825Z,1009.07
2018-06-24T07:17:43.813Z,1009.03
2018-06-24T07:18:43.826Z,1009.03
2018-06-24T07:19:43.794Z,1009.02
2018-06-24T07:20:43.778Z,1009.05
2018-06-24T07:21:43.763Z,1009.05
2018-06-24T07:22:43.763Z,1009.10
2018-06-24T07:23:43.741Z,1009.07
2018-06-24T07:24:43.780Z,1009.05
2018-06-24T07:25:43.720Z,1009.06
2018-06-24T07:26:43.703Z,1009.07
2018-06-24T07:27:43.709Z,1009.08
2018-06-24T07:28:43.675Z,1009.06
2018-06-24T07:29:43.671Z,1009.07
2018-06-24T07:30:43.687Z,1009.04
2018-06-24T07:31:43.647Z,1009.06
2018-06-24T07:32:43.637Z,1009.05
2018-06-24T07:33:43.799Z,1009.05
2018-06-24T07:34:43.650Z,1009.11
2018-06-24T07:35:43.607Z,1009.05
2018-06-24T07:36:43.581Z,1009.04
2018-06-24T07:37:43.577Z,1009.05
2018-06-24T07:38:43.565Z,1009.01
2018-06-24T07:39:43.593Z,1009.03
2018-06-24T07:40:43.578Z,1009.00
2018-06-24T07:41:43.534Z,1009.03
2018-06-24T07:42:43.526Z,1009.03
2018-06-24T07:43:43.506Z,1008.99
2018-06-24T07:44:43.504Z,1008.98
2018-06-24T07:45:43.507Z,1009.01
2018-06-24T07:46:43.481Z,1009.05
2018-06-24T07:47:43.689Z,1009.06
2018-06-24T07:48:43.444Z,1009.00
2018-06-24T07:49:43.439Z,1009.02
2018-06-24T07:50:43.465Z,1009.01
2018-06-24T07:51:43.419Z,1009.00
2018-06-24T07:52:43.433Z,1009.01
2018-06-24T07:53:43.391Z,1008.99
2018-06-24T07:54:43.384Z,1009.03
2018-06-24T07:55:43.407Z,1009.06
2018-06-24T07:56:43.353Z,1009.03
2018-06-24T07:57:43.354Z,1009.03
2018-06-24T07:58:43.331Z,1009.05
2018-06-24T07:59:43.329Z,1009.10
2018-06-24T08:00:43.358Z,1009.10
2018-06-24T08:01:43.312Z,1009.10
2018-06-24T08:02:43.295Z,1009.07
2018-06-24T08:03:43.275Z,1009.05
2018-06-24T08:04:43.276Z,1009.05
2018-06-24T08:05:43.261Z,1009.05
2018-06-24T08:06:43.259Z,1009.03
2018-06-24T08:07:43.243Z,1009.05
2018-06-24T08:08:43.224Z,1009.05
2018-06-24T08:09:43.236Z,1009.08
2018-06-24T08:10:43.193Z,1009.12
2018-06-24T08:11:43.696Z,1009.12
2018-06-24T08:12:43.205Z,1009.10
2018-06-24T08:13:43.164Z,1009.11
2018-06-24T08:14:43.173Z,1009.13
2018-06-24T08:15:43.143Z,1009.13
2018-06-24T08:16:43.149Z,1009.17
2018-06-24T08:17:43.155Z,1009.16
2018-06-24T08:18:43.122Z,1009.14
2018-06-24T08:19:43.107Z,1009.11
2018-06-24T08:20:43.103Z,1009.14
2018-06-24T08:21:43.075Z,1009.13
2018-06-24T08:22:43.123Z,1009.09
2018-06-24T08:23:43.058Z,1009.10
2018-06-24T08:24:43.060Z,1009.10
2018-06-24T08:25:43.035Z,1009.12
2018-06-24T08:26:43.028Z,1009.11
2018-06-24T08:27:43.047Z,1009.12
2018-06-24T08:28:42.995Z,1009.16
2018-06-24T08:29:43.035Z,1009.15
2018-06-24T08:30:42.989Z,1009.17
2018-06-24T08:31:43.401Z,1009.14
2018-06-24T08:32:42.956Z,1009.18
2018-06-24T08:33:42.996Z,1009.22
2018-06-24T08:34:42.937Z,1009.24
2018-06-24T08:35:42.951Z,1009.25
2018-06-24T08:36:42.910Z,1009.20
2018-06-24T08:37:43.605Z,1009.28
2018-06-24T08:38:42.878Z,1009.25
2018-06-24T08:39:42.879Z,1009.27
2018-06-24T08:40:42.897Z,1009.33
2018-06-24T08:41:42.856Z,1009.29
2018-06-24T08:42:42.838Z,1009.30
2018-06-24T08:43:42.835Z,1009.30
2018-06-24T08:44:42.853Z,1009.23
2018-06-24T08:45:42.820Z,1009.29
2018-06-24T08:46:42.799Z,1009.29
2018-06-24T08:47:42.975Z,1009.29
2018-06-24T08:48:42.956Z,1009.29
2018-06-24T08:49:42.771Z,1009.33
2018-06-24T08:50:42.917Z,1009.31
2018-06-24T08:51:42.740Z,1009.34
2018-06-24T08:52:42.762Z,1009.32
2018-06-24T08:53:42.713Z,1009.33
2018-06-24T08:54:42.701Z,1009.36
2018-06-24T08:55:42.697Z,1009.34
2018-06-24T08:56:42.680Z,1009.35
2018-06-24T08:57:42.700Z,1009.36
2018-06-24T08:58:42.660Z,1009.35
2018-06-24T08:59:42.673Z,1009.31
2018-06-24T09:00:42.675Z,1009.35
2018-06-24T09:01:42.612Z,1009.37
2018-06-24T09:02:42.612Z,1009.32
2018-06-24T09:03:42.604Z,1009.42
2018-06-24T09:04:42.582Z,1009.38
2018-06-24T09:05:42.603Z,1009.37
2018-06-24T09:06:42.559Z,1009.38
2018-06-24T09:07:42.544Z,1009.35
2018-06-24T09:08:43.117Z,1009.35
2018-06-24T09:09:42.941Z,1009.35
2018-06-24T09:10:42.539Z,1009.35
2018-06-24T09:11:42.654Z,1009.30
2018-06-24T09:12:42.497Z,1009.32
2018-06-24T09:13:42.477Z,1009.29
2018-06-24T09:14:42.510Z,1009.31
2018-06-24T09:15:42.576Z,1009.34
2018-06-24T09:16:42.454Z,1009.32
2018-06-24T09:17:42.435Z,1009.31
2018-06-24T09:18:42.418Z,1009.33
2018-06-24T09:19:42.406Z,1009.31
2018-06-24T09:20:42.404Z,1009.32
2018-06-24T09:21:42.406Z,1009.30
2018-06-24T09:22:42.378Z,1009.29
2018-06-24T09:23:42.350Z,1009.26
2018-06-24T09:24:42.348Z,1009.28
2018-06-24T09:25:44.600Z,1009.26
2018-06-24T09:26:42.352Z,1009.30
2018-06-24T09:27:42.475Z,1009.29
2018-06-24T09:28:42.308Z,1009.29
2018-06-24T09:29:42.285Z,1009.28
2018-06-24T09:30:42.347Z,1009.33
2018-06-24T09:31:42.267Z,1009.33
2018-06-24T09:32:42.262Z,1009.31
2018-06-24T09:33:42.245Z,1009.28
2018-06-24T09:34:42.231Z,1009.29
2018-06-24T09:35:42.233Z,1009.25
2018-06-24T09:36:42.197Z,1009.26
2018-06-24T09:37:42.645Z,1009.28
2018-06-24T09:38:46.062Z,1009.36
2018-06-24T09:39:42.831Z,1009.30
2018-06-24T09:40:43.620Z,1009.30
2018-06-24T09:41:42.739Z,1009.33
2018-06-24T09:42:42.622Z,1009.37
2018-06-24T09:43:43.207Z,1009.38
2018-06-24T09:44:42.858Z,1009.33
2018-06-24T09:45:42.792Z,1009.27
2018-06-24T09:46:42.805Z,1009.33
2018-06-24T09:47:42.696Z,1009.37
2018-06-24T09:48:42.737Z,1009.31
2018-06-24T09:49:42.853Z,1009.32
2018-06-24T09:50:42.860Z,1009.28
2018-06-24T09:51:42.593Z,1009.24
2018-06-24T09:52:42.832Z,1009.32
2018-06-24T09:53:42.580Z,1009.26
2018-06-24T09:54:42.705Z,1009.22
2018-06-24T09:55:42.992Z,1009.26
2018-06-24T09:56:43.107Z,1009.25
2018-06-24T09:57:42.126Z,1009.24
2018-06-24T09:58:42.748Z,1009.24
2018-06-24T09:59:42.508Z,1009.21
2018-06-24T10:00:43.138Z,1009.23
2018-06-24T10:01:42.382Z,1009.20
2018-06-24T10:02:42.588Z,1009.24
2018-06-24T10:03:42.139Z,1009.21
2018-06-24T10:04:47.097Z,1009.26
2018-06-24T10:05:42.574Z,1009.25
2018-06-24T10:06:42.874Z,1009.24
2018-06-24T10:07:42.274Z,1009.20
2018-06-24T10:08:42.613Z,1009.20
2018-06-24T10:09:42.563Z,1009.22
2018-06-24T10:10:42.540Z,1009.23
2018-06-24T10:11:42.713Z,1009.20
2018-06-24T10:12:42.466Z,1009.20
2018-06-24T10:13:42.273Z,1009.26
2018-06-24T10:14:42.411Z,1009.22
2018-06-24T10:15:43.142Z,1009.21
2018-06-24T10:16:42.049Z,1009.09
2018-06-24T10:17:42.913Z,1009.18
2018-06-24T10:18:42.214Z,1009.14
2018-06-24T10:19:42.769Z,1009.15
2018-06-24T10:20:42.371Z,1009.15
2018-06-24T10:21:42.365Z,1009.17
2018-06-24T10:22:42.385Z,1009.20
2018-06-24T10:23:42.455Z,1009.20
2018-06-24T10:24:42.666Z,1009.23
2018-06-24T10:25:41.613Z,1009.27
2018-06-24T10:26:41.598Z,1009.26
2018-06-24T10:27:41.610Z,1009.24
2018-06-24T10:28:41.595Z,1009.21
2018-06-24T10:29:41.594Z,1009.22
2018-06-24T10:30:42.532Z,1009.20
2018-06-24T10:31:41.559Z,1009.19
2018-06-24T10:32:41.545Z,1009.15
2018-06-24T10:33:41.555Z,1009.17
2018-06-24T10:34:41.559Z,1009.18
2018-06-24T10:35:41.522Z,1009.12
2018-06-24T10:36:41.510Z,1009.10
2018-06-24T10:37:41.494Z,1009.11
2018-06-24T10:38:41.479Z,1009.13
2018-06-24T10:39:41.469Z,1009.17
2018-06-24T10:40:41.594Z,1009.20
2018-06-24T10:41:41.536Z,1009.14
2018-06-24T10:42:41.433Z,1009.13
2018-06-24T10:43:41.420Z,1009.15
2018-06-24T10:44:41.427Z,1009.12
2018-06-24T10:45:41.403Z,1009.14
2018-06-24T10:46:41.424Z,1009.13
2018-06-24T10:47:41.426Z,1009.13
2018-06-24T10:48:41.366Z,1009.12
2018-06-24T10:49:41.354Z,1009.17
2018-06-24T10:50:41.338Z,1009.15
2018-06-24T10:51:41.314Z,1009.13
2018-06-24T10:52:41.466Z,1009.13
2018-06-24T10:53:41.304Z,1009.10
2018-06-24T10:54:41.292Z,1009.10
2018-06-24T10:55:41.281Z,1009.13
2018-06-24T10:56:41.275Z,1009.07
2018-06-24T10:57:41.254Z,1009.12
2018-06-24T10:58:41.257Z,1009.12
2018-06-24T10:59:41.289Z,1009.11
2018-06-24T11:00:41.234Z,1009.12
2018-06-24T11:01:41.220Z,1009.06
2018-06-24T11:02:41.261Z,1009.06
2018-06-24T11:03:41.198Z,1009.01
2018-06-24T11:04:41.187Z,1009.00
2018-06-24T11:05:41.178Z,1008.98
2018-06-24T11:06:41.168Z,1009.03
2018-06-24T11:07:41.157Z,1009.04
2018-06-24T11:08:41.150Z,1009.05
2018-06-24T11:09:41.148Z,1009.03
2018-06-24T11:10:41.120Z,1009.02
2018-06-24T11:11:41.104Z,1009.03
2018-06-24T11:12:41.092Z,1009.03
2018-06-24T11:13:41.073Z,1009.03
2018-06-24T11:14:41.075Z,1009.01
2018-06-24T11:15:41.085Z,1009.03
2018-06-24T11:16:41.051Z,1008.99
2018-06-24T11:17:41.036Z,1008.98
2018-06-24T11:18:41.023Z,1008.99
2018-06-24T11:19:41.020Z,1009.01
2018-06-24T11:20:41.009Z,1009.01
2018-06-24T11:21:40.993Z,1009.06
2018-06-24T11:22:40.972Z,1009.07
2018-06-24T11:23:40.964Z,1009.02
2018-06-24T11:24:41.699Z,1009.07
2018-06-24T11:25:40.951Z,1009.03
2018-06-24T11:26:40.937Z,1009.08
2018-06-24T11:27:40.923Z,1009.02
2018-06-24T11:28:40.913Z,1009.08
2018-06-24T11:29:40.897Z,1009.08
2018-06-24T11:30:40.898Z,1009.10
2018-06-24T11:31:40.876Z,1009.14
2018-06-24T11:32:40.865Z,1009.13
2018-06-24T11:33:40.848Z,1009.11
2018-06-24T11:34:40.843Z,1009.09
2018-06-24T11:35:41.186Z,1009.10
2018-06-24T11:36:40.822Z,1009.07
2018-06-24T11:37:40.812Z,1009.08
2018-06-24T11:38:40.791Z,1009.07
2018-06-24T11:39:40.806Z,1009.06
2018-06-24T11:40:40.767Z,1009.04
2018-06-24T11:41:40.822Z,1009.04
2018-06-24T11:42:40.763Z,1009.05
2018-06-24T11:43:40.747Z,1009.07
2018-06-24T11:44:40.730Z,1009.06
2018-06-24T11:45:40.714Z,1009.10
2018-06-24T11:46:40.706Z,1009.04
2018-06-24T11:47:40.734Z,1009.00
2018-06-24T11:48:40.679Z,1008.96
2018-06-24T11:49:40.689Z,1008.97
2018-06-24T11:50:40.668Z,1009.00
2018-06-24T11:51:40.667Z,1009.00
2018-06-24T11:52:40.662Z,1008.99
2018-06-24T11:53:40.680Z,1008.92
2018-06-24T11:54:40.616Z,1008.97
2018-06-24T11:55:40.608Z,1008.93
2018-06-24T11:56:40.617Z,1008.89
2018-06-24T11:57:40.606Z,1008.89
2018-06-24T11:58:40.585Z,1008.86
2018-06-24T11:59:40.602Z,1008.88
2018-06-24T12:00:40.866Z,1008.91
2018-06-24T12:01:40.548Z,1008.92
2018-06-24T12:02:40.580Z,1008.89
2018-06-24T12:03:40.550Z,1008.84
2018-06-24T12:04:40.514Z,1008.87
2018-06-24T12:05:40.498Z,1008.86